createdAt,value
2022-09-07T00:01:53.827Z,75.73
2022-09-07T00:05:15.441Z,75.35
2022-09-07T00:08:43.654Z,75.98
2022-09-07T00:12:10.333Z,75.72
2022-09-07T00:15:38.589Z,75.51
2022-09-07T00:19:03.856Z,75.67
2022-09-07T00:22:27.825Z,76.04
2022-09-07T00:25:53.963Z,76.18
2022-09-07T00:29:15.879Z,76.71
2022-09-07T00:32:42.136Z,76.42
2022-09-07T00:36:06.479Z,76.26
2022-09-07T00:39:28.116Z,76.44
2022-09-07T00:42:56.112Z,76.67
2022-09-07T00:46:31.896Z,76.24
2022-09-07T00:49:59.413Z,76.31
2022-09-07T00:53:30.729Z,76.67
2022-09-07T00:56:54.055Z,77.13
2022-09-07T01:00:15.878Z,76.71
2022-09-07T01:03:43.730Z,76.39
2022-09-07T01:07:05.891Z,76.45
2022-09-07T01:10:33.491Z,76.82
2022-09-07T01:13:58.131Z,77.07
2022-09-07T01:17:19.652Z,77.17
2022-09-07T01:21:15.716Z,76.70
2022-09-07T01:25:14.496Z,76.94
2022-09-07T01:28:38.923Z,77.24
2022-09-07T01:32:13.605Z,77.13
2022-09-07T01:35:47.968Z,77.08
2022-09-07T01:39:09.512Z,77.22
2022-09-07T01:42:41.040Z,77.12
2022-09-07T01:46:07.464Z,77.16
2022-09-07T01:49:39.579Z,77.12
2022-09-07T01:53:09.160Z,77.35
2022-09-07T01:56:38.940Z,77.54
2022-09-07T02:00:16.484Z,77.45
2022-09-07T02:03:47.302Z,77.36
2022-09-07T02:07:23.315Z,77.28
2022-09-07T02:11:03.664Z,77.53
2022-09-07T02:14:31.380Z,77.76
2022-09-07T02:18:05.563Z,77.72
2022-09-07T02:21:50.753Z,78.32
2022-09-07T02:25:37.839Z,77.79
2022-09-07T02:29:01.806Z,77.95
2022-09-07T02:32:23.419Z,77.91
2022-09-07T02:35:45.942Z,78.12
2022-09-07T02:39:07.678Z,78.23
2022-09-07T02:42:35.933Z,78.71
2022-09-07T02:46:09.948Z,79.07
2022-09-07T02:49:55.559Z,78.77
2022-09-07T02:53:42.882Z,78.58
2022-09-07T02:57:15.896Z,78.31
2022-09-07T03:00:47.873Z,78.02
2022-09-07T03:04:27.970Z,78.05
2022-09-07T03:08:16.778Z,77.61
2022-09-07T03:11:41.129Z,78.64
2022-09-07T03:15:02.879Z,78.72
2022-09-07T03:18:26.396Z,78.90
2022-09-07T03:21:50.548Z,78.95
2022-09-07T03:25:12.472Z,78.48
2022-09-07T03:28:34.110Z,78.67
2022-09-07T03:31:58.423Z,79.22
2022-09-07T03:35:20.459Z,79.24
2022-09-07T03:38:42.188Z,79.11
2022-09-07T03:42:06.273Z,78.79
2022-09-07T03:45:28.025Z,78.53
2022-09-07T03:48:50.467Z,78.35
2022-09-07T03:52:12.214Z,79.11
2022-09-07T03:55:35.947Z,78.88
2022-09-07T03:58:59.940Z,78.35
2022-09-07T04:02:21.720Z,78.19
2022-09-07T04:05:43.665Z,78.39
2022-09-07T04:09:08.954Z,78.15
2022-09-07T04:12:30.739Z,77.92
2022-09-07T04:15:53.992Z,77.95
2022-09-07T04:19:15.895Z,78.28
2022-09-07T04:22:37.420Z,78.21
2022-09-07T04:25:59.420Z,77.93
2022-09-07T04:29:21.143Z,77.77
2022-09-07T04:32:46.582Z,77.68
2022-09-07T04:36:12.138Z,77.83
2022-09-07T04:39:33.794Z,77.70
2022-09-07T04:42:55.466Z,77.64
2022-09-07T04:46:23.532Z,78.00
2022-09-07T04:49:49.874Z,78.16
2022-09-07T04:53:11.479Z,77.87
2022-09-07T04:56:35.463Z,77.54
2022-09-07T04:59:57.035Z,77.66
2022-09-07T05:03:18.608Z,77.54
2022-09-07T05:06:40.618Z,76.88
2022-09-07T05:10:02.176Z,76.79
2022-09-07T05:13:24.064Z,77.07
2022-09-07T05:16:45.758Z,76.72
2022-09-07T05:20:11.968Z,77.13
2022-09-07T05:23:36.167Z,78.56
2022-09-07T05:27:01.784Z,78.66
2022-09-07T05:37:50.844Z,75.97
2022-09-07T05:41:17.223Z,74.38
2022-09-07T05:44:46.040Z,73.41
2022-09-07T05:48:07.909Z,71.76
2022-09-07T05:51:29.532Z,70.57
2022-09-07T05:54:54.257Z,71.30
2022-09-07T05:58:17.017Z,70.97
2022-09-07T06:01:42.067Z,69.59
2022-09-07T06:05:03.694Z,70.30
2022-09-07T06:08:25.608Z,69.76
2022-09-07T06:11:51.996Z,69.67
2022-09-07T06:15:16.344Z,68.54
2022-09-07T06:18:45.148Z,69.47
2022-09-07T06:22:08.930Z,68.69
2022-09-07T06:25:30.546Z,68.83
2022-09-07T06:28:57.768Z,67.67
2022-09-07T06:36:04.198Z,65.53
2022-09-07T06:39:28.517Z,65.03
2022-09-07T06:42:52.799Z,64.53
2022-09-07T06:49:57.223Z,62.60
2022-09-07T06:53:38.571Z,61.41
2022-09-07T06:57:09.314Z,60.62
2022-09-07T07:00:31.571Z,59.90
2022-09-07T07:03:55.981Z,61.98
2022-09-07T07:07:17.578Z,60.59
2022-09-07T07:10:41.744Z,59.41
2022-09-07T07:14:03.744Z,60.02
2022-09-07T07:17:27.731Z,61.14
2022-09-07T07:20:49.776Z,61.13
2022-09-07T07:24:11.362Z,59.91
2022-09-07T07:27:32.952Z,57.80
2022-09-07T07:30:59.701Z,57.76
2022-09-07T07:34:21.358Z,58.02
2022-09-07T07:37:43.097Z,58.49
2022-09-07T07:48:34.471Z,59.52
2022-09-07T07:55:45.406Z,56.01
2022-09-07T07:59:12.613Z,56.99
2022-09-07T08:02:37.527Z,56.42
2022-09-07T08:06:11.247Z,55.82
2022-09-07T08:09:33.055Z,54.32
2022-09-07T08:12:55.056Z,52.46
2022-09-07T08:16:17.615Z,53.11
2022-09-07T08:19:41.942Z,53.74
2022-09-07T08:23:09.591Z,54.09
2022-09-07T08:26:31.221Z,54.01
2022-09-07T08:29:52.899Z,54.84
2022-09-07T08:33:14.449Z,54.64
2022-09-07T08:36:40.487Z,54.34
2022-09-07T08:40:05.678Z,55.08
2022-09-07T08:44:01.678Z,56.77
2022-09-07T08:47:41.317Z,54.44
2022-09-07T08:51:24.122Z,54.62
2022-09-07T08:54:57.543Z,54.28
2022-09-07T08:58:48.871Z,52.29
2022-09-07T09:02:36.600Z,51.42
2022-09-07T09:06:07.523Z,49.42
2022-09-07T09:09:32.878Z,49.64
2022-09-07T09:13:03.741Z,50.71
2022-09-07T09:16:42.997Z,50.86
2022-09-07T09:20:23.626Z,50.20
2022-09-07T09:23:51.507Z,50.90
2022-09-07T09:27:18.319Z,50.60
2022-09-07T09:30:40.085Z,49.94
2022-09-07T09:34:14.521Z,50.48
2022-09-07T09:37:38.116Z,49.87
2022-09-07T09:41:02.609Z,48.18
2022-09-07T09:44:33.115Z,48.69
2022-09-07T09:47:55.388Z,48.54
2022-09-07T09:55:17.208Z,46.05
2022-09-07T10:06:22.312Z,45.28
2022-09-07T10:09:50.747Z,46.41
2022-09-07T10:13:23.393Z,46.17
2022-09-07T10:16:45.971Z,45.90
2022-09-07T10:20:16.806Z,46.05
2022-09-07T10:23:40.595Z,46.86
2022-09-07T10:27:19.758Z,47.29
2022-09-07T10:31:03.393Z,45.72
2022-09-07T10:34:30.069Z,44.95
2022-09-07T10:38:16.521Z,44.99
2022-09-07T10:41:53.218Z,42.95
2022-09-07T10:45:35.085Z,40.67
2022-09-07T10:49:05.514Z,40.87
2022-09-07T10:52:45.062Z,41.63
2022-09-07T10:56:22.892Z,43.83
2022-09-07T11:03:40.980Z,45.11
2022-09-07T11:07:41.629Z,42.86
2022-09-07T11:11:05.940Z,43.39
2022-09-07T11:14:29.261Z,43.31
2022-09-07T11:18:07.406Z,44.75
2022-09-07T11:25:29.562Z,41.32
2022-09-07T11:33:01.790Z,40.34
2022-09-07T11:36:29.064Z,42.05
2022-09-07T11:40:05.088Z,41.98
2022-09-07T11:43:41.749Z,42.39
2022-09-07T11:47:22.656Z,42.66
2022-09-07T11:50:48.969Z,43.00
2022-09-07T11:54:34.194Z,44.18
2022-09-07T11:58:23.888Z,44.47
2022-09-07T12:01:48.417Z,41.97
2022-09-07T12:05:33.624Z,41.78
2022-09-07T12:09:25.456Z,41.61
2022-09-07T12:12:56.747Z,41.60
2022-09-07T12:16:51.267Z,40.73
2022-09-07T12:20:17.695Z,41.16
2022-09-07T12:23:48.607Z,40.56
2022-09-07T12:27:31.982Z,41.32
2022-09-07T12:31:12.798Z,42.37
2022-09-07T12:34:34.395Z,43.72
2022-09-07T12:37:57.686Z,42.26
2022-09-07T12:41:25.599Z,42.50
2022-09-07T12:44:47.516Z,41.31
2022-09-07T12:48:15.246Z,41.74
2022-09-07T12:56:15.537Z,40.89
2022-09-07T12:59:53.118Z,41.74
2022-09-07T13:07:35.900Z,41.87
2022-09-07T13:11:16.198Z,41.38
2022-09-07T13:14:44.068Z,40.92
2022-09-07T13:18:05.861Z,42.33
2022-09-07T13:21:43.538Z,43.03
2022-09-07T13:25:21.039Z,42.52
2022-09-07T13:28:52.086Z,43.05
2022-09-07T13:36:22.146Z,43.14
2022-09-07T13:39:52.544Z,42.45
2022-09-07T13:43:22.413Z,42.28
2022-09-07T13:47:11.609Z,41.81
2022-09-07T13:50:55.416Z,42.85
2022-09-07T13:54:49.540Z,42.94
2022-09-07T13:58:19.551Z,41.35
2022-09-07T14:01:47.178Z,41.21
2022-09-07T14:05:18.704Z,41.46
2022-09-07T14:08:40.932Z,41.96
2022-09-07T14:12:04.473Z,42.01
2022-09-07T14:15:37.196Z,42.44
2022-09-07T14:18:59.110Z,42.68
2022-09-07T14:22:23.586Z,41.84
2022-09-07T14:29:31.881Z,42.16
2022-09-07T14:33:05.181Z,42.82
2022-09-07T14:36:45.737Z,41.98
2022-09-07T14:40:15.643Z,42.55
2022-09-07T14:43:56.956Z,42.09
2022-09-07T14:47:30.439Z,41.47
2022-09-07T14:51:05.792Z,41.86
2022-09-07T14:54:34.949Z,41.83
2022-09-07T14:58:17.556Z,42.03
2022-09-07T15:01:39.234Z,42.09
2022-09-07T15:05:18.564Z,42.84
2022-09-07T15:08:46.658Z,42.50
2022-09-07T15:12:18.940Z,42.53
2022-09-07T15:15:46.738Z,42.80
2022-09-07T15:19:18.470Z,42.64
2022-09-07T15:22:40.009Z,42.93
2022-09-07T15:26:03.037Z,43.48
2022-09-07T15:29:25.015Z,44.23
2022-09-07T15:32:46.833Z,44.18
2022-09-07T15:36:12.051Z,43.81
2022-09-07T15:39:34.640Z,43.63
2022-09-07T15:43:00.331Z,43.94
2022-09-07T15:46:22.387Z,44.43
2022-09-07T15:49:51.486Z,44.06
2022-09-07T16:00:41.381Z,45.50
2022-09-07T16:04:05.437Z,45.41
2022-09-07T16:08:24.694Z,45.05
2022-09-07T16:11:18.437Z,46.22
2022-09-07T16:14:40.444Z,46.55
2022-09-07T16:18:02.597Z,46.69
2022-09-07T16:21:26.607Z,46.59
2022-09-07T16:24:48.668Z,46.83
2022-09-07T16:28:13.016Z,47.18
2022-09-07T16:31:36.205Z,47.08
2022-09-07T16:35:00.338Z,47.36
2022-09-07T16:42:03.766Z,47.94
2022-09-07T16:49:12.246Z,48.38
2022-09-07T16:52:34.607Z,48.69
2022-09-07T16:56:11.291Z,49.36
2022-09-07T16:59:32.962Z,49.15
2022-09-07T17:03:01.798Z,49.57
2022-09-07T17:06:28.234Z,50.31
2022-09-07T17:09:50.151Z,50.80
2022-09-07T17:13:12.008Z,51.40
2022-09-07T17:16:38.587Z,51.66
2022-09-07T17:20:02.807Z,51.95
2022-09-07T17:23:27.933Z,52.38
2022-09-07T17:26:49.547Z,52.65
2022-09-07T17:30:25.603Z,53.59
2022-09-07T17:33:49.823Z,54.41
2022-09-07T17:37:11.567Z,55.31
2022-09-07T17:40:33.401Z,55.53
2022-09-07T17:43:56.840Z,56.74
2022-09-07T17:47:21.161Z,57.65
2022-09-07T17:50:42.991Z,58.90
2022-09-07T17:54:09.979Z,58.46
2022-09-07T17:57:34.816Z,59.26
2022-09-07T18:01:02.905Z,59.43
2022-09-07T18:04:28.873Z,58.97
2022-09-07T18:07:50.622Z,59.37
2022-09-07T18:14:57.385Z,59.68
2022-09-07T18:18:20.219Z,60.17
2022-09-07T18:21:47.778Z,60.29
2022-09-07T18:25:10.436Z,60.71
2022-09-07T18:32:13.718Z,61.57
2022-09-07T18:35:35.357Z,61.64
2022-09-07T18:39:01.384Z,60.97
2022-09-07T18:42:26.075Z,61.75
2022-09-07T18:45:51.018Z,62.43
2022-09-07T18:49:12.752Z,62.34
2022-09-07T18:56:22.390Z,64.16
2022-09-07T18:59:44.089Z,64.31
2022-09-07T19:03:05.645Z,63.49
2022-09-07T19:06:27.242Z,63.13
2022-09-07T19:09:49.010Z,62.34
2022-09-07T19:13:10.728Z,62.52
2022-09-07T19:16:35.622Z,63.00
2022-09-07T19:20:00.691Z,63.88
2022-09-07T19:23:25.113Z,64.69
2022-09-07T19:26:48.464Z,64.75
2022-09-07T19:30:12.758Z,64.92
2022-09-07T19:33:35.243Z,64.90
2022-09-07T19:36:59.384Z,64.59
2022-09-07T19:40:26.922Z,64.51
2022-09-07T19:43:51.851Z,65.16
2022-09-07T19:47:13.404Z,65.28
2022-09-07T19:50:40.835Z,65.42
2022-09-07T19:54:06.423Z,65.18
2022-09-07T19:57:28.551Z,66.09
2022-09-07T20:00:52.553Z,65.82
2022-09-07T20:04:20.725Z,65.25
2022-09-07T20:07:48.400Z,64.98
2022-09-07T20:11:16.725Z,65.71
2022-09-07T20:14:38.317Z,66.51
2022-09-07T20:18:02.495Z,66.66
2022-09-07T20:21:24.741Z,64.63
2022-09-07T20:24:46.570Z,64.14
2022-09-07T20:28:08.178Z,65.28
2022-09-07T20:31:32.269Z,66.04
2022-09-07T20:34:56.783Z,65.90
2022-09-07T20:38:21.469Z,66.02
2022-09-07T20:41:43.185Z,65.98
2022-09-07T20:45:09.038Z,65.81
2022-09-07T20:48:31.188Z,65.26
2022-09-07T20:51:55.743Z,65.63
2022-09-07T20:55:24.580Z,65.69
2022-09-07T20:58:47.321Z,65.58
2022-09-07T21:02:09.944Z,65.13
2022-09-07T21:05:35.613Z,65.14
2022-09-07T21:08:59.869Z,65.54
2022-09-07T21:12:23.739Z,66.17
2022-09-07T21:15:45.511Z,66.61
2022-09-07T21:19:09.325Z,67.04
2022-09-07T21:22:31.715Z,68.27
2022-09-07T21:25:55.724Z,68.50
2022-09-07T21:29:23.371Z,68.40
2022-09-07T21:32:45.103Z,68.92
2022-09-07T21:36:09.426Z,69.34
2022-09-07T21:39:33.353Z,70.42
2022-09-07T21:42:55.063Z,69.56
2022-09-07T21:46:18.827Z,69.00
2022-09-07T21:49:44.493Z,69.02
2022-09-07T21:53:06.207Z,68.39
2022-09-07T21:56:31.964Z,68.50
2022-09-07T21:59:56.576Z,68.29
2022-09-07T22:03:18.247Z,68.30
2022-09-07T22:06:43.893Z,68.73
2022-09-07T22:10:08.807Z,68.69
2022-09-07T22:13:30.451Z,68.78
2022-09-07T22:16:52.193Z,70.29
2022-09-07T22:20:13.948Z,70.58
2022-09-07T22:23:39.789Z,70.44
2022-09-07T22:27:01.512Z,70.37
2022-09-07T22:30:23.307Z,70.19
2022-09-07T22:33:46.827Z,69.71
2022-09-07T22:37:11.395Z,70.02
2022-09-07T22:40:33.057Z,70.07
2022-09-07T22:43:56.131Z,69.88
2022-09-07T22:47:17.668Z,70.16
2022-09-07T22:50:39.171Z,70.26
2022-09-07T22:54:00.829Z,70.71
2022-09-07T22:57:23.397Z,70.88
2022-09-07T23:00:46.935Z,70.56
2022-09-07T23:04:11.228Z,71.39
2022-09-07T23:07:32.876Z,71.37
2022-09-07T23:11:01.476Z,71.53
2022-09-07T23:14:23.127Z,71.50
2022-09-07T23:17:44.826Z,71.76
2022-09-07T23:21:08.893Z,71.98
2022-09-07T23:24:31.396Z,72.15
2022-09-07T23:27:54.108Z,72.05
2022-09-07T23:31:18.436Z,72.37
2022-09-07T23:34:40.037Z,72.30
2022-09-07T23:38:01.545Z,73.22
2022-09-07T23:41:24.982Z,73.04
2022-09-07T23:44:48.460Z,72.81
2022-09-07T23:48:10.005Z,73.01
2022-09-07T23:51:33.869Z,73.70
2022-09-07T23:54:58.058Z,73.04
2022-09-07T23:58:22.807Z,74.49
